Time;durP1;ratioP1;P1;durP2;ratioP2;P2;SDS_P1;SDS_P2;PMS_P1;PMS_P2;Temp;Humidity;BMP_temperature;BMP_pressure;BME280_temperature;BME280_humidity;BME280_pressure;Samples;Min_cycle;Max_cycle;Signal;HPM_P1;HPM_P2
2022/09/28 00:00:20;;;;;;;5.57;2.40;;;;;;;17.18;62.68;99939.66;5060836;28;20380;-67
2022/09/28 00:02:45;;;;;;;3.00;2.50;;;;;;;17.19;62.84;99933.25;5053190;28;20778;-67
2022/09/28 00:05:11;;;;;;;7.37;3.07;;;;;;;17.20;62.85;99931.41;5054380;28;20389;-67
2022/09/28 00:07:37;;;;;;;4.38;2.70;;;;;;;17.19;62.99;99935.91;5065691;28;20391;-67
2022/09/28 00:10:03;;;;;;;4.70;2.40;;;;;;;17.20;62.93;99932.19;5055867;28;20388;-67
2022/09/28 00:12:29;;;;;;;5.50;2.80;;;;;;;17.18;62.61;99928.94;5060517;28;20384;-66
2022/09/28 00:15:23;;;;;;;4.70;2.47;;;;;;;17.22;62.31;99931.16;5073744;27;20917;-66
2022/09/28 00:17:49;;;;;;;5.60;2.70;;;;;;;17.12;61.98;99924.50;5066691;28;20449;-67
2022/09/28 00:20:16;;;;;;;3.42;3.13;;;;;;;17.14;62.06;99930.47;5066729;28;20429;-68
2022/09/28 00:22:41;;;;;;;4.78;3.10;;;;;;;17.13;62.03;99931.50;5066857;28;20471;-67
2022/09/28 00:25:40;;;;;;;6.05;3.00;;;;;;;17.10;62.21;99923.13;5060064;28;20923;-67
2022/09/28 00:28:06;;;;;;;3.60;2.90;;;;;;;17.08;62.09;99931.38;5047114;28;20449;-67
2022/09/28 00:30:31;;;;;;;3.40;2.90;;;;;;;17.04;62.11;99926.75;5046712;28;20400;-67
2022/09/28 00:32:57;;;;;;;6.53;3.67;;;;;;;17.03;62.11;99925.09;5046825;28;20468;-66
2022/09/28 00:35:22;;;;;;;6.70;4.70;;;;;;;16.96;61.95;99922.50;5038711;28;20394;-67
2022/09/28 00:38:09;;;;;;;6.78;4.30;;;;;;;16.95;62.33;99928.94;5088846;27;20402;-67
2022/09/28 00:40:58;;;;;;;7.53;4.45;;;;;;;16.93;61.97;99939.06;5061983;28;20810;-66
2022/09/28 00:43:24;;;;;;;8.00;5.22;;;;;;;16.91;61.98;99944.66;5047017;28;20405;-67
2022/09/28 00:46:01;;;;;;;11.60;9.30;;;;;;;16.87;62.04;99939.97;5046918;28;20398;-67
2022/09/28 00:48:31;;;;;;;11.98;9.60;;;;;;;16.87;62.09;99945.31;5046745;28;21271;-67
2022/09/28 00:51:00;;;;;;;9.82;6.93;;;;;;;16.85;62.28;99948.22;5046774;28;20388;-67
2022/09/28 00:53:31;;;;;;;9.93;6.07;;;;;;;16.82;62.20;99940.66;5046548;28;20433;-66
2022/09/28 00:56:11;;;;;;;7.80;7.00;;;;;;;16.82;62.14;99946.81;5046803;28;20378;-67
2022/09/28 01:01:13;;;;;;;7.53;6.50;;;;;;;16.77;61.96;99937.84;5064452;28;20410;-67
2022/09/28 01:03:44;;;;;;;9.63;6.60;;;;;;;16.76;62.01;99928.16;5046750;28;21866;-67
2022/09/28 01:06:23;;;;;;;9.82;8.80;;;;;;;16.75;62.01;99935.38;5083218;27;2069003;-67
2022/09/28 01:08:51;;;;;;;8.60;7.25;;;;;;;16.73;62.10;99942.03;5147969;27;20773;-67
2022/09/28 01:11:18;;;;;;;8.98;8.18;;;;;;;16.69;62.07;99935.47;5148151;27;20464;-67
2022/09/28 01:15:02;;;;;;;7.20;5.07;;;;;;;16.65;62.12;99937.81;5081253;27;20453;-67
2022/09/28 01:17:58;;;;;;;6.63;5.40;;;;;;;16.62;62.19;99936.41;5099353;27;20402;-67
2022/09/28 01:20:27;;;;;;;7.68;5.03;;;;;;;16.62;62.25;99940.94;5086866;28;20467;-67
2022/09/28 01:24:31;;;;;;;5.43;4.35;;;;;;;16.58;62.25;99940.59;5054728;27;20414;-67
2022/09/28 01:27:05;;;;;;;5.15;4.35;;;;;;;16.56;62.27;99939.19;5046971;28;20409;-67
2022/09/28 01:29:50;;;;;;;8.10;4.83;;;;;;;16.54;62.41;99939.41;5046460;28;20421;-67
2022/09/28 01:32:16;;;;;;;5.32;4.43;;;;;;;16.52;62.14;99938.81;5046018;28;20421;-67
2022/09/28 01:37:34;;;;;;;6.43;5.00;;;;;;;16.49;62.26;99930.44;5095694;27;20406;-67
2022/09/28 01:40:31;;;;;;;7.50;5.00;;;;;;;16.49;62.40;99941.13;5069565;28;20406;-67
2022/09/28 01:44:14;;;;;;;5.78;4.90;;;;;;;16.47;62.36;99943.22;5084932;27;20463;-67
2022/09/28 01:46:43;;;;;;;7.75;5.25;;;;;;;16.42;62.28;99933.19;5067054;28;20404;-67
2022/09/28 01:49:33;;;;;;;6.38;5.25;;;;;;;16.42;62.19;99960.78;5067122;28;20870;-66
2022/09/28 01:54:25;;;;;;;5.30;4.80;;;;;;;16.40;62.17;99951.34;5086214;27;20412;-67
2022/09/28 01:56:55;;;;;;;5.85;4.75;;;;;;;16.39;62.35;99963.09;5060593;28;20418;-67
2022/09/28 01:59:26;;;;;;;5.27;4.77;;;;;;;16.39;62.50;99963.91;5059547;28;20384;-67
2022/09/28 02:02:08;;;;;;;8.65;4.05;;;;;;;16.39;62.59;99960.41;5064350;28;20960;-67
2022/09/28 02:05:06;;;;;;;7.00;4.15;;;;;;;16.36;62.59;99955.50;5060155;28;20514;-67
2022/09/28 02:11:24;;;;;;;4.05;3.65;;;;;;;16.34;62.12;99955.72;5070103;27;20459;-67
2022/09/28 02:14:02;;;;;;;6.10;3.50;;;;;;;16.34;62.20;99962.94;5057643;28;20818;-67
2022/09/28 02:16:27;;;;;;;5.10;2.90;;;;;;;16.33;62.02;99958.63;5061657;28;20376;-67
2022/09/28 02:20:59;;;;;;;3.78;2.78;;;;;;;16.29;62.02;99955.59;5044080;28;20411;-67
2022/09/28 02:25:37;;;;;;;8.63;3.30;;;;;;;16.28;61.96;99972.69;5071454;28;20408;-68
2022/09/28 02:29:11;;;;;;;3.45;3.15;;;;;;;16.25;61.89;99976.63;5039901;28;20934;-67
2022/09/28 02:33:41;;;;;;;4.65;3.05;;;;;;;16.20;61.84;99973.00;5087959;27;20412;-67
2022/09/28 02:36:07;;;;;;;3.42;3.00;;;;;;;16.27;61.68;99983.63;5052337;28;20404;-67
2022/09/28 02:40:45;;;;;;;4.00;3.03;;;;;;;16.22;61.97;99977.09;5086943;27;20408;-67
2022/09/28 02:46:04;;;;;;;3.72;2.88;;;;;;;16.15;61.85;99976.34;5095543;27;20402;-67
2022/09/28 02:48:35;;;;;;;4.95;3.30;;;;;;;16.13;62.30;99974.94;5087122;28;20428;-67
2022/09/28 02:51:26;;;;;;;4.90;2.80;;;;;;;16.11;62.05;99972.47;5076153;28;20376;-66
2022/09/28 02:54:06;;;;;;;3.55;2.63;;;;;;;16.11;62.03;99977.03;5052774;28;20388;-67
2022/09/28 02:58:42;;;;;;;4.22;2.60;;;;;;;16.10;61.99;99975.38;5066221;27;20412;-67
2022/09/28 03:01:08;;;;;;;3.08;2.20;;;;;;;16.10;61.91;99970.88;5046937;28;20397;-67
2022/09/28 03:04:18;;;;;;;3.83;2.20;;;;;;;16.08;61.78;99964.94;5046700;28;20440;-67
2022/09/28 03:06:53;;;;;;;5.00;2.38;;;;;;;16.09;61.66;99971.09;5024194;28;20410;-67
2022/09/28 03:09:21;;;;;;;4.00;2.58;;;;;;;16.09;61.74;99968.41;5033843;28;20421;-67
2022/09/28 03:12:32;;;;;;;3.47;2.17;;;;;;;16.07;61.65;99970.50;5094773;27;20453;-67
2022/09/28 03:15:11;;;;;;;3.80;1.80;;;;;;;16.07;61.49;99973.97;5066875;28;20570;-66
2022/09/28 03:17:36;;;;;;;2.90;1.92;;;;;;;16.03;61.24;99981.63;5066333;28;20774;-67
2022/09/28 03:20:03;;;;;;;4.60;1.80;;;;;;;16.00;61.23;99971.38;5066656;28;20376;-67
2022/09/28 03:23:18;;;;;;;4.00;1.83;;;;;;;15.99;61.15;99968.91;5064657;28;20468;-67
2022/09/28 03:25:43;;;;;;;2.55;1.80;;;;;;;15.95;61.08;99970.41;5046902;28;20401;-67
2022/09/28 03:28:09;;;;;;;5.93;2.00;;;;;;;15.93;61.12;99986.66;5046609;28;20378;-67
2022/09/28 03:30:34;;;;;;;4.03;2.00;;;;;;;15.88;61.23;99989.19;5046616;28;20468;-67
2022/09/28 03:33:01;;;;;;;3.47;2.20;;;;;;;15.86;61.25;99997.47;5046793;28;20385;-67
2022/09/28 03:35:26;;;;;;;5.25;2.40;;;;;;;15.84;61.03;99994.16;5046667;28;20422;-67
2022/09/28 03:40:23;;;;;;;5.70;2.58;;;;;;;15.83;61.24;99989.88;5077878;27;20404;-67
2022/09/28 03:42:48;;;;;;;5.65;2.65;;;;;;;15.78;61.18;99980.91;5064084;28;20836;-67
2022/09/28 03:47:02;;;;;;;3.95;2.67;;;;;;;15.78;61.29;99979.03;5079910;27;20407;-67
2022/09/28 03:49:28;;;;;;;4.70;2.33;;;;;;;15.78;61.51;99972.88;5054829;28;20447;-67
2022/09/28 03:51:53;;;;;;;3.43;2.40;;;;;;;15.76;61.42;99964.28;5064741;28;20376;-68
2022/09/28 03:56:16;;;;;;;4.57;2.42;;;;;;;15.74;61.39;99969.84;5075237;27;20408;-67
2022/09/28 03:58:41;;;;;;;2.75;2.47;;;;;;;15.72;61.43;99966.53;5062719;28;20444;-67
2022/09/28 04:01:11;;;;;;;4.32;2.60;;;;;;;15.72;61.39;99971.88;5039706;28;20435;-66
2022/09/28 04:03:37;;;;;;;4.97;2.92;;;;;;;15.71;61.45;99974.78;5045505;28;20778;-67
2022/09/28 04:06:03;;;;;;;4.55;2.83;;;;;;;15.72;61.45;99973.72;5058671;28;20386;-67
2022/09/28 04:08:28;;;;;;;5.05;3.10;;;;;;;15.72;61.69;99977.22;5061128;28;20478;-67
2022/09/28 04:10:58;;;;;;;5.15;2.75;;;;;;;15.74;61.70;99975.19;5066760;28;20480;-67
2022/09/28 04:13:26;;;;;;;3.70;2.70;;;;;;;15.81;61.65;99999.13;5054911;28;20394;-66
2022/09/28 04:15:53;;;;;;;3.78;2.88;;;;;;;15.81;61.71;100008.00;5066559;28;20797;-66
2022/09/28 04:18:19;;;;;;;4.95;3.33;;;;;;;15.82;61.51;100004.25;5055193;28;20410;-67
2022/09/28 04:20:46;;;;;;;4.10;3.00;;;;;;;15.82;61.96;100006.94;5046772;28;20424;-66
2022/09/28 04:23:15;;;;;;;3.67;2.47;;;;;;;15.81;61.99;100002.66;5048465;28;20385;-66
2022/09/28 04:25:44;;;;;;;4.57;2.72;;;;;;;15.89;62.15;100000.72;5045649;28;20891;-67
2022/09/28 04:31:18;;;;;;;5.20;3.83;;;;;;;16.02;61.82;100020.09;5003547;28;20389;-66
2022/09/28 04:33:44;;;;;;;4.18;3.28;;;;;;;16.02;61.70;100020.09;5003215;28;20397;-66
2022/09/28 04:36:10;;;;;;;6.28;3.53;;;;;;;16.07;61.27;100029.31;5015582;28;20494;-68
2022/09/28 04:38:36;;;;;;;5.95;3.60;;;;;;;16.11;61.56;100027.81;5048805;28;20389;-66
2022/09/28 04:41:02;;;;;;;6.25;4.03;;;;;;;16.21;61.52;100033.47;5044912;28;20382;-65
2022/09/28 04:43:28;;;;;;;7.72;4.18;;;;;;;16.35;61.27;100032.28;5045571;28;20388;-67
2022/09/28 04:46:00;;;;;;;6.33;3.80;;;;;;;16.55;60.69;100029.34;5045110;28;20771;-67
2022/09/28 04:48:27;;;;;;;4.22;3.63;;;;;;;16.74;60.20;100030.09;5045380;28;20386;-67
2022/09/28 04:50:57;;;;;;;7.60;4.03;;;;;;;16.91;59.88;100033.00;5046009;28;20472;-67
2022/09/28 04:53:24;;;;;;;7.90;4.07;;;;;;;17.09;60.02;100039.34;5054235;28;20750;-66
2022/09/28 04:56:02;;;;;;;6.70;4.60;;;;;;;17.25;59.20;100038.66;5053910;28;20539;-66
2022/09/28 04:58:29;;;;;;;9.77;5.32;;;;;;;17.31;58.69;100028.88;5045185;28;20467;-67
2022/09/28 05:02:36;;;;;;;11.23;5.40;;;;;;;17.55;58.07;100029.69;5048505;28;20413;-67
2022/09/28 05:05:02;;;;;;;12.60;4.57;;;;;;;17.69;57.88;100017.69;5046106;28;20834;-68
2022/09/28 05:07:27;;;;;;;8.37;4.33;;;;;;;17.85;56.93;100023.41;5045437;28;20374;-67
2022/09/28 05:09:54;;;;;;;8.07;4.53;;;;;;;18.06;56.76;100022.00;5032683;28;20384;-67
2022/09/28 05:12:20;;;;;;;9.13;4.38;;;;;;;18.34;56.98;100024.72;5038259;28;20415;-67
2022/09/28 05:14:45;;;;;;;6.70;5.50;;;;;;;18.53;56.67;100033.41;5039992;28;20800;-67
2022/09/28 05:17:11;;;;;;;6.60;4.33;;;;;;;18.54;56.22;100035.03;5036793;28;20386;-68
2022/09/28 05:19:36;;;;;;;7.75;3.70;;;;;;;18.79;55.47;100033.88;5044073;28;20386;-67
2022/09/28 05:22:03;;;;;;;9.40;4.50;;;;;;;19.02;55.18;100034.84;5044661;28;20420;-67
2022/09/28 05:24:29;;;;;;;5.93;3.90;;;;;;;18.99;54.52;100040.72;5046117;28;20410;-68
2022/09/28 05:26:55;;;;;;;6.93;4.78;;;;;;;18.73;55.76;100035.66;5036029;28;20386;-67
2022/09/28 05:29:21;;;;;;;7.60;5.10;;;;;;;18.51;56.12;100030.16;5046016;28;20381;-68
2022/09/28 05:31:46;;;;;;;6.80;4.60;;;;;;;18.41;56.33;100039.88;5031717;28;20397;-68
2022/09/28 05:34:11;;;;;;;7.78;5.10;;;;;;;18.34;56.21;100032.75;5038474;28;20498;-67
2022/09/28 05:36:39;;;;;;;8.70;5.30;;;;;;;18.32;56.19;100036.75;5030202;28;20843;-68
2022/09/28 05:39:05;;;;;;;10.68;6.90;;;;;;;18.30;56.52;100039.66;5046004;28;20432;-68
2022/09/28 05:41:30;;;;;;;7.97;4.22;;;;;;;18.28;56.63;100039.09;5031787;28;20458;-69
2022/09/28 05:43:57;;;;;;;8.95;4.88;;;;;;;18.18;56.72;100038.06;5040554;28;20415;-68
2022/09/28 05:46:22;;;;;;;10.02;5.05;;;;;;;18.28;56.34;100041.78;5040277;28;20420;-67
2022/09/28 05:48:48;;;;;;;5.35;3.67;;;;;;;18.44;56.17;100031.34;5045725;28;20883;-67
2022/09/28 05:51:14;;;;;;;5.28;3.13;;;;;;;18.48;56.06;100027.13;5045887;28;20382;-68
2022/09/28 05:53:39;;;;;;;5.80;2.90;;;;;;;18.39;55.55;100017.84;5045928;28;20394;-68
2022/09/28 05:56:05;;;;;;;5.47;3.00;;;;;;;18.23;55.60;100028.25;5038639;28;20774;-68
2022/09/28 05:58:30;;;;;;;8.40;3.70;;;;;;;18.11;55.42;100036.34;5041860;28;20386;-68
2022/09/28 06:00:56;;;;;;;5.27;3.20;;;;;;;18.06;56.25;100024.66;5029849;28;20848;-67
2022/09/28 06:03:23;;;;;;;10.27;4.53;;;;;;;18.07;55.89;100027.13;5027156;28;20414;-68
2022/09/28 06:05:48;;;;;;;11.65;5.03;;;;;;;18.07;56.00;100020.94;5027714;28;20396;-68
2022/09/28 06:08:13;;;;;;;18.63;7.77;;;;;;;18.08;56.23;100001.94;5026192;28;20966;-68
2022/09/28 06:10:39;;;;;;;16.30;6.43;;;;;;;18.09;56.22;100000.06;5026878;28;20471;-67
2022/09/28 06:13:05;;;;;;;7.22;4.07;;;;;;;17.99;56.54;99979.22;5016901;28;20449;-69
2022/09/28 06:15:33;;;;;;;6.72;4.38;;;;;;;17.96;57.32;99987.75;5010694;28;20396;-68
2022/09/28 06:18:09;;;;;;;8.18;4.18;;;;;;;18.01;57.90;99993.22;5013853;28;20800;-67
2022/09/28 06:20:37;;;;;;;7.30;3.70;;;;;;;18.02;57.86;99991.34;5015247;28;20423;-68
2022/09/28 06:23:03;;;;;;;6.43;3.63;;;;;;;18.08;57.59;99995.78;5013001;28;20438;-67
2022/09/28 06:25:29;;;;;;;9.77;3.75;;;;;;;18.15;57.78;99993.78;5012880;28;20912;-67
2022/09/28 06:28:02;;;;;;;7.70;3.53;;;;;;;18.24;57.72;99996.88;5013946;28;20392;-68
2022/09/28 06:30:29;;;;;;;7.88;3.80;;;;;;;18.25;57.63;100002.00;5012404;28;20400;-68
2022/09/28 06:32:57;;;;;;;6.88;3.40;;;;;;;18.26;57.79;100016.25;5019187;28;20927;-68
2022/09/28 06:35:24;;;;;;;7.53;3.90;;;;;;;19.57;55.32;100019.84;5024111;28;20399;-68
2022/09/28 06:37:50;;;;;;;9.40;3.92;;;;;;;23.62;46.38;100014.47;5010658;28;20470;-67
2022/09/28 06:40:16;;;;;;;8.63;5.70;;;;;;;25.64;41.76;100012.19;5017538;28;20381;-68
2022/09/28 06:42:42;;;;;;;10.00;4.80;;;;;;;26.37;40.34;100018.41;5031144;28;20383;-68
2022/09/28 06:45:08;;;;;;;6.90;4.57;;;;;;;26.58;39.68;100038.75;5019685;28;20830;-67
2022/09/28 06:47:34;;;;;;;7.65;4.03;;;;;;;24.96;42.98;100038.25;5024220;28;20392;-68
2022/09/28 06:49:59;;;;;;;5.55;3.30;;;;;;;23.31;46.30;100054.25;5013673;28;20898;-67
2022/09/28 06:52:25;;;;;;;3.92;2.50;;;;;;;22.46;47.52;100049.25;5031112;28;20477;-67
2022/09/28 06:54:51;;;;;;;5.00;3.00;;;;;;;22.05;48.71;100054.44;5015027;28;20404;-67
2022/09/28 06:57:16;;;;;;;7.80;3.78;;;;;;;21.91;49.00;100051.38;5017201;28;20386;-67
2022/09/28 06:59:42;;;;;;;4.97;2.70;;;;;;;21.68;48.98;100042.63;5019984;28;20458;-67
2022/09/28 07:02:13;;;;;;;4.75;2.47;;;;;;;21.43;49.49;100035.16;5015736;28;20425;-67
2022/09/28 07:04:41;;;;;;;6.13;3.08;;;;;;;21.10;50.32;100037.03;5010257;28;20472;-67
2022/09/28 07:07:10;;;;;;;7.60;2.73;;;;;;;21.16;50.08;100044.09;5025003;28;20424;-66
2022/09/28 07:09:35;;;;;;;6.40;3.10;;;;;;;21.62;49.36;100040.97;5011794;28;20376;-67
2022/09/28 07:12:03;;;;;;;4.45;2.90;;;;;;;21.95;48.39;100036.31;5021372;28;20388;-67
2022/09/28 07:14:31;;;;;;;8.60;3.27;;;;;;;22.13;48.26;100029.66;5030887;28;20398;-67
2022/09/28 07:17:26;;;;;;;8.40;3.00;;;;;;;22.29;48.06;100039.47;5087458;27;20459;-67
2022/09/28 07:19:51;;;;;;;5.20;3.13;;;;;;;22.39;48.17;100041.38;5080249;28;20398;-68
2022/09/28 07:22:20;;;;;;;5.03;3.10;;;;;;;22.54;47.95;100037.91;5083027;28;20802;-66
2022/09/28 07:24:47;;;;;;;9.10;3.50;;;;;;;22.52;46.88;100045.47;5086880;28;20378;-67
2022/09/28 07:27:12;;;;;;;6.90;2.90;;;;;;;22.61;46.81;100051.16;5086157;28;20386;-67
2022/09/28 07:29:38;;;;;;;5.30;2.80;;;;;;;22.78;46.53;100053.63;5078201;28;20864;-67
2022/09/28 07:32:03;;;;;;;4.33;2.90;;;;;;;22.98;45.49;100050.16;5086431;28;20448;-67
2022/09/28 07:34:29;;;;;;;6.72;3.40;;;;;;;22.97;45.20;100054.75;5085214;28;20840;-67
2022/09/28 07:36:56;;;;;;;5.83;3.07;;;;;;;23.06;45.74;100063.97;5067737;28;20802;-66
2022/09/28 07:39:22;;;;;;;5.60;3.05;;;;;;;23.12;45.42;100053.16;5086489;28;20401;-67
2022/09/28 07:41:48;;;;;;;8.07;3.50;;;;;;;23.17;44.91;100056.69;5080798;28;20458;-67
2022/09/28 07:44:14;;;;;;;7.50;3.63;;;;;;;23.05;45.49;100056.97;5081579;28;20386;-69
2022/09/28 07:46:41;;;;;;;7.43;4.30;;;;;;;23.33;45.00;100049.38;5086602;28;20383;-67
2022/09/28 07:49:06;;;;;;;8.00;5.85;;;;;;;23.26;45.28;100052.38;5081664;28;20390;-68
2022/09/28 07:52:59;;;;;;;9.43;5.47;;;;;;;23.49;45.28;100050.19;5084860;27;20467;-67
2022/09/28 07:57:27;;;;;;;7.70;4.97;;;;;;;23.44;45.38;100058.28;5051616;28;20410;-69
2022/09/28 07:59:53;;;;;;;8.88;5.93;;;;;;;23.46;45.11;100054.25;5026451;28;20453;-70
2022/09/28 08:02:20;;;;;;;5.50;5.00;;;;;;;23.40;45.39;100052.63;5030966;28;20394;-69
2022/09/28 08:04:49;;;;;;;7.40;4.80;;;;;;;23.18;46.22;100060.22;5027234;28;20391;-68
2022/09/28 08:07:16;;;;;;;7.47;4.88;;;;;;;23.11;46.06;100060.47;5026281;28;20487;-69
2022/09/28 08:09:43;;;;;;;5.68;4.50;;;;;;;23.39;45.98;100050.19;5026536;28;20478;-68
2022/09/28 08:12:09;;;;;;;9.93;6.25;;;;;;;23.42;46.26;100060.47;5026289;28;20449;-68
2022/09/28 08:15:21;;;;;;;7.47;4.20;;;;;;;23.47;45.78;100053.16;5088953;27;20406;-68
2022/09/28 08:17:47;;;;;;;11.77;4.60;;;;;;;23.43;46.22;100052.09;5070638;28;20450;-70
2022/09/28 08:23:08;;;;;;;6.93;4.20;;;;;;;23.20;46.54;100039.13;5070333;28;20418;-65
2022/09/28 08:25:36;;;;;;;5.77;4.00;;;;;;;23.21;46.25;100046.97;5071839;28;20391;-68
2022/09/28 08:28:03;;;;;;;7.00;3.57;;;;;;;23.17;46.42;100042.34;5071482;28;20470;-68
2022/09/28 08:30:30;;;;;;;12.82;4.38;;;;;;;22.96;47.41;100050.44;5077136;28;20399;-68
2022/09/28 08:32:56;;;;;;;6.40;3.85;;;;;;;23.00;47.33;100056.91;5075014;28;20774;-68
2022/09/28 08:36:15;;;;;;;11.50;4.63;;;;;;;23.06;47.56;100053.16;5034153;28;20432;-68
2022/09/28 08:38:41;;;;;;;4.63;3.70;;;;;;;23.05;47.21;100058.84;5046557;28;20398;-68
2022/09/28 08:41:19;;;;;;;6.60;3.77;;;;;;;22.86;47.25;100061.22;5046492;28;20435;-67
2022/09/28 08:43:45;;;;;;;8.07;4.07;;;;;;;22.77;47.28;100060.13;5029120;28;20402;-69
2022/09/28 08:46:12;;;;;;;5.85;3.88;;;;;;;22.71;47.20;100057.41;5039434;28;20949;-68
2022/09/28 08:48:53;;;;;;;7.95;4.30;;;;;;;22.82;47.05;100054.72;5045402;28;20386;-68
2022/09/28 08:51:34;;;;;;;8.57;3.97;;;;;;;22.83;46.71;100048.22;5045796;28;20385;-68
2022/09/28 08:54:23;;;;;;;7.15;3.90;;;;;;;22.69;47.39;100058.75;5040546;28;20397;-68
2022/09/28 08:56:53;;;;;;;6.87;4.20;;;;;;;22.49;47.60;100048.69;5040222;28;20390;-68
2022/09/28 08:59:30;;;;;;;7.57;3.88;;;;;;;22.50;47.60;100045.72;5040305;28;20398;-68
2022/09/28 09:02:38;;;;;;;7.50;3.70;;;;;;;22.44;47.61;100037.91;5064633;27;20473;-69
2022/09/28 09:05:06;;;;;;;5.43;3.83;;;;;;;22.62;47.44;100047.41;5061720;28;20427;-67
2022/09/28 09:08:03;;;;;;;6.80;3.95;;;;;;;22.85;46.78;100044.19;5059581;28;20382;-68
2022/09/28 09:10:48;;;;;;;7.13;3.80;;;;;;;22.86;46.53;100037.69;5063247;28;20422;-69
2022/09/28 09:13:38;;;;;;;7.20;3.78;;;;;;;22.88;47.17;100037.44;5057855;28;20396;-69
2022/09/28 09:16:34;;;;;;;6.63;3.53;;;;;;;22.86;46.74;100043.09;5060601;28;20375;-68
2022/09/28 09:19:06;;;;;;;6.68;3.72;;;;;;;22.76;47.08;100042.28;5063121;28;20383;-69
2022/09/28 09:21:45;;;;;;;7.15;3.88;;;;;;;22.70;47.00;100042.25;5060257;28;20413;-69
2022/09/28 09:24:26;;;;;;;8.50;3.90;;;;;;;22.62;47.20;100026.59;5060028;28;20468;-68
2022/09/28 09:27:29;;;;;;;5.80;3.53;;;;;;;22.52;47.28;100018.47;5060171;28;20380;-69
2022/09/28 09:30:05;;;;;;;7.28;3.90;;;;;;;22.68;47.51;100025.50;5056196;28;20522;-67
2022/09/28 09:33:22;;;;;;;5.80;3.73;;;;;;;22.81;47.28;100029.59;5058337;28;20374;-70
2022/09/28 09:36:06;;;;;;;6.70;3.28;;;;;;;22.75;47.73;100033.38;5032993;28;20392;-68
2022/09/28 09:39:16;;;;;;;5.13;3.25;;;;;;;22.80;47.57;100029.88;5066109;28;20391;-69
2022/09/28 09:41:53;;;;;;;5.40;2.80;;;;;;;22.67;47.01;100028.47;5036919;28;20434;-67
2022/09/28 09:44:39;;;;;;;5.22;2.65;;;;;;;22.57;47.63;100036.56;5065737;28;20680;-68
2022/09/28 09:47:15;;;;;;;5.95;2.90;;;;;;;22.55;47.70;100046.84;5045762;28;20392;-68
2022/09/28 09:50:28;;;;;;;4.90;2.90;;;;;;;22.59;48.89;100040.63;5095377;27;20461;-68
2022/09/28 09:53:26;;;;;;;7.88;3.30;;;;;;;22.80;49.17;100036.09;5066804;28;20457;-68
2022/09/28 09:55:58;;;;;;;7.57;2.55;;;;;;;23.00;47.72;100029.09;5055413;28;20396;-69
2022/09/28 09:58:23;;;;;;;6.57;2.73;;;;;;;23.06;47.25;100028.03;5066774;28;20392;-68
2022/09/28 10:00:53;;;;;;;6.30;2.70;;;;;;;23.16;47.37;100024.53;5061051;28;20552;-67
2022/09/28 10:03:26;;;;;;;5.20;2.63;;;;;;;23.05;47.47;100019.09;5064951;28;20445;-67
2022/09/28 10:06:06;;;;;;;6.55;3.60;;;;;;;23.08;48.24;100023.16;5066369;28;20406;-68
2022/09/28 10:08:45;;;;;;;9.10;3.47;;;;;;;23.05;49.21;100012.91;5060594;28;20413;-68
2022/09/28 10:11:15;;;;;;;10.05;4.22;;;;;;;23.09;49.47;100017.47;5059713;28;20450;-68
2022/09/28 10:13:41;;;;;;;5.40;2.60;;;;;;;23.17;48.35;100018.03;5052033;28;20384;-68
2022/09/28 10:16:08;;;;;;;3.53;2.20;;;;;;;23.15;46.91;100020.19;5066109;28;20434;-68
2022/09/28 10:18:34;;;;;;;4.00;1.98;;;;;;;23.15;46.04;100026.41;5052822;28;20396;-68
2022/09/28 10:21:00;;;;;;;5.57;2.40;;;;;;;23.08;46.35;100020.44;5065844;28;20389;-68
2022/09/28 10:23:32;;;;;;;5.63;2.63;;;;;;;23.17;46.63;100021.53;5065826;28;20437;-68
2022/09/28 10:26:34;;;;;;;5.43;2.15;;;;;;;23.26;45.83;100021.78;5066362;28;20451;-68
2022/09/28 10:29:03;;;;;;;5.03;2.03;;;;;;;23.09;45.41;100019.38;5066043;28;20408;-68
2022/09/28 10:31:38;;;;;;;5.77;2.10;;;;;;;23.08;45.79;100017.75;5066004;28;20388;-68
2022/09/28 10:34:06;;;;;;;3.15;2.00;;;;;;;23.18;45.43;100019.66;5065422;28;20376;-68
2022/09/28 10:36:37;;;;;;;8.27;2.22;;;;;;;23.15;45.67;100023.69;5065421;28;20376;-68
2022/09/28 10:39:04;;;;;;;5.20;1.70;;;;;;;23.27;45.27;100024.25;5065648;28;20467;-68
2022/09/28 10:41:31;;;;;;;7.75;2.22;;;;;;;23.46;46.00;100020.97;5051485;28;20389;-68
2022/09/28 10:44:09;;;;;;;5.07;1.92;;;;;;;23.57;44.07;100019.88;5065490;28;20947;-68
2022/09/28 10:46:37;;;;;;;12.23;2.20;;;;;;;23.70;44.12;100017.66;5065355;28;20388;-67
2022/09/28 10:49:08;;;;;;;5.20;2.20;;;;;;;23.70;43.64;100013.09;5065435;28;20431;-68
2022/09/28 10:51:52;;;;;;;4.72;1.90;;;;;;;23.77;44.02;100016.31;5065602;28;20387;-68
2022/09/28 10:54:27;;;;;;;5.70;2.00;;;;;;;23.82;43.97;100015.50;5053902;28;20441;-68
2022/09/28 10:56:55;;;;;;;3.95;2.08;;;;;;;23.87;43.93;100015.50;5065242;28;20481;-68
2022/09/28 10:59:36;;;;;;;7.13;2.23;;;;;;;24.00;43.82;100017.63;5065363;28;20387;-68
2022/09/28 11:02:11;;;;;;;5.68;2.15;;;;;;;24.13;43.81;100015.38;5051605;28;20392;-68
2022/09/28 11:04:41;;;;;;;6.93;2.00;;;;;;;24.08;43.75;100008.13;5052210;28;20392;-68
2022/09/28 11:07:23;;;;;;;5.38;2.05;;;;;;;24.01;43.85;100011.13;5051847;28;20396;-68
2022/09/28 11:09:51;;;;;;;5.45;2.05;;;;;;;24.13;44.08;100016.22;5050529;28;20420;-68
2022/09/28 11:12:30;;;;;;;6.10;2.03;;;;;;;24.04;44.14;100010.56;5051289;28;20790;-67
2022/09/28 11:15:00;;;;;;;6.68;2.15;;;;;;;23.99;44.47;100012.50;5051851;28;20393;-67
2022/09/28 11:17:30;;;;;;;9.17;2.30;;;;;;;23.98;44.83;100008.94;5062652;28;20403;-66
2022/09/28 11:19:58;;;;;;;6.07;2.30;;;;;;;23.98;44.38;100008.16;5051788;28;20443;-67
2022/09/28 11:22:28;;;;;;;7.38;2.50;;;;;;;24.03;44.77;100005.44;5047762;28;20396;-67
2022/09/28 11:25:20;;;;;;;5.10;2.33;;;;;;;24.19;45.16;100012.38;5031868;28;20390;-67
2022/09/28 11:27:51;;;;;;;5.22;2.20;;;;;;;24.24;44.86;100011.56;5049228;28;20381;-68
2022/09/28 11:30:44;;;;;;;4.95;2.60;;;;;;;24.31;45.73;100001.25;5051621;28;20852;-68
2022/09/28 11:33:17;;;;;;;4.68;2.10;;;;;;;24.31;45.16;99997.69;5051707;28;20393;-68
2022/09/28 11:36:11;;;;;;;9.40;2.60;;;;;;;24.38;45.40;99998.22;5050721;28;20381;-67
2022/09/28 11:38:44;;;;;;;6.25;2.40;;;;;;;24.45;46.75;99987.06;5036943;28;20893;-66
2022/09/28 11:41:40;;;;;;;12.30;3.67;;;;;;;24.41;46.05;99984.91;5050587;28;20396;-66
2022/09/28 11:44:38;;;;;;;3.83;1.90;;;;;;;24.33;44.99;100001.78;5051232;28;20385;-67
2022/09/28 11:47:19;;;;;;;7.32;2.20;;;;;;;24.34;44.83;99997.97;5037124;28;20461;-67
2022/09/28 11:50:00;;;;;;;6.07;2.17;;;;;;;24.37;44.80;99991.19;5050707;28;20424;-66
2022/09/28 11:53:15;;;;;;;4.75;1.80;;;;;;;24.37;44.66;99986.56;5092381;27;20414;-66
2022/09/28 11:55:40;;;;;;;4.78;1.88;;;;;;;24.34;44.98;99989.03;5077381;28;20442;-67
2022/09/28 11:58:21;;;;;;;6.03;2.00;;;;;;;24.28;45.05;99980.13;5065721;28;20380;-67
2022/09/28 12:01:07;;;;;;;4.88;1.83;;;;;;;24.21;45.06;99969.59;5058701;28;20893;-66
2022/09/28 12:03:49;;;;;;;10.50;2.77;;;;;;;24.23;45.47;99983.66;5066737;28;20464;-66
2022/09/28 12:06:18;;;;;;;4.95;2.00;;;;;;;24.33;45.70;99961.13;5066125;28;20783;-66
2022/09/28 12:08:53;;;;;;;6.60;2.50;;;;;;;24.33;46.51;99957.63;5071727;28;20390;-65
2022/09/28 12:11:42;;;;;;;5.88;2.20;;;;;;;24.35;45.95;99960.88;5071058;28;20403;-65
2022/09/28 12:14:21;;;;;;;8.48;2.67;;;;;;;24.31;45.64;99944.38;5071062;28;20380;-66
2022/09/28 12:17:01;;;;;;;6.10;2.20;;;;;;;24.34;45.87;99956.53;5070075;28;20386;-66
2022/09/28 12:22:25;;;;;;;8.45;2.20;;;;;;;24.54;46.29;99947.47;5051709;28;20417;-66
2022/09/28 12:24:56;;;;;;;6.88;2.35;;;;;;;24.68;45.58;99958.50;5040972;28;20433;-65
2022/09/28 12:27:44;;;;;;;7.90;2.43;;;;;;;24.77;45.68;99956.81;5044388;28;20467;-66
2022/09/28 12:30:18;;;;;;;5.73;2.20;;;;;;;24.77;45.83;99946.75;5042433;28;20377;-66
2022/09/28 12:32:47;;;;;;;8.00;2.53;;;;;;;24.82;45.62;99955.97;5046243;28;20389;-66
2022/09/28 12:35:23;;;;;;;5.63;2.20;;;;;;;24.85;45.56;99953.50;5039439;28;20461;-66
2022/09/28 12:38:00;;;;;;;7.45;2.53;;;;;;;24.82;44.85;99948.63;5026642;28;20893;-65
2022/09/28 12:40:36;;;;;;;4.97;1.80;;;;;;;24.70;44.59;99948.97;5038613;28;20441;-66
2022/09/28 12:43:30;;;;;;;4.05;2.03;;;;;;;24.70;44.51;99945.47;5043271;28;20807;-66
2022/09/28 12:46:19;;;;;;;5.95;1.90;;;;;;;24.73;44.12;99943.00;5035845;28;20393;-66